createdAt,value
2023-02-14T00:02:13.820Z,101005.06
2023-02-14T00:04:46.022Z,101003.34
2023-02-14T00:07:14.849Z,101001.72
2023-02-14T00:09:43.191Z,100999.13
2023-02-14T00:12:11.546Z,101001.75
2023-02-14T00:14:56.711Z,101000.00
2023-02-14T00:17:25.969Z,101014.88
2023-02-14T00:19:58.445Z,101017.53
2023-02-14T00:22:26.554Z,101011.50
2023-02-14T00:24:56.405Z,101012.41
2023-02-14T00:27:26.179Z,101008.03
2023-02-14T00:29:55.206Z,101010.69
2023-02-14T00:32:24.945Z,101006.28
2023-02-14T00:34:53.588Z,101004.59
2023-02-14T00:37:23.951Z,101007.91
2023-02-14T00:39:52.924Z,101015.84
2023-02-14T00:42:21.615Z,101014.03
2023-02-14T00:44:50.251Z,101012.28
2023-02-14T00:47:18.331Z,101014.94
2023-02-14T00:49:46.760Z,101014.84
2023-02-14T00:52:16.229Z,101016.63
2023-02-14T00:54:48.102Z,101021.84
2023-02-14T00:57:17.314Z,101009.75
2023-02-14T00:59:47.164Z,101011.50
2023-02-14T01:02:15.642Z,101002.81
2023-02-14T01:04:45.183Z,101009.78
2023-02-14T01:07:15.915Z,101014.97
2023-02-14T01:09:44.238Z,101018.47
2023-02-14T01:12:13.927Z,101015.94
2023-02-14T01:14:42.304Z,101014.19
2023-02-14T01:17:10.569Z,101015.03
2023-02-14T01:19:42.564Z,101013.34
2023-02-14T01:22:10.652Z,101020.38
2023-02-14T01:24:39.775Z,101022.16
2023-02-14T01:27:07.952Z,101021.28
2023-02-14T01:29:38.139Z,101023.91
2023-02-14T01:32:06.908Z,101023.91
2023-02-14T01:34:37.899Z,101017.75
2023-02-14T01:37:06.206Z,101022.97
2023-02-14T01:39:34.645Z,101021.22
2023-02-14T01:42:03.352Z,101015.19
2023-02-14T01:45:07.366Z,101015.16
2023-02-14T01:47:40.302Z,101018.69
2023-02-14T01:50:16.220Z,101023.06
2023-02-14T01:52:48.656Z,101012.69
2023-02-14T01:55:19.982Z,101017.06
2023-02-14T01:57:53.429Z,101005.69
2023-02-14T02:00:42.725Z,101013.47
2023-02-14T02:03:12.318Z,101004.75
2023-02-14T02:05:46.595Z,101013.47
2023-02-14T02:08:16.092Z,101011.72
2023-02-14T02:10:44.273Z,101012.59
2023-02-14T02:13:18.318Z,101007.38
2023-02-14T02:15:57.009Z,101004.81
2023-02-14T02:18:32.200Z,101007.47
2023-02-14T02:21:31.678Z,101008.34
2023-02-14T02:24:16.492Z,101004.00
2023-02-14T02:27:20.828Z,100995.28
2023-02-14T02:30:36.801Z,101008.38
2023-02-14T02:33:46.275Z,101005.72
2023-02-14T02:36:29.907Z,101004.03
2023-02-14T02:39:12.388Z,100997.94
2023-02-14T02:41:54.312Z,100988.38
2023-02-14T02:44:29.148Z,100996.16
2023-02-14T02:47:07.055Z,100999.69
2023-02-14T02:50:02.535Z,101001.44
2023-02-14T02:53:01.293Z,101004.94
2023-02-14T02:55:52.280Z,101004.91
2023-02-14T02:58:22.938Z,101000.56
2023-02-14T03:00:54.470Z,100998.81
2023-02-14T03:03:42.875Z,101004.91
2023-02-14T03:06:11.536Z,101006.59
2023-02-14T03:08:41.213Z,100998.78
2023-02-14T03:11:10.973Z,100998.81
2023-02-14T03:14:01.084Z,100995.31
2023-02-14T03:16:35.965Z,100994.41
2023-02-14T03:19:52.338Z,100990.06
2023-02-14T03:22:30.520Z,100988.34
2023-02-14T03:25:11.106Z,100986.59
2023-02-14T03:27:46.786Z,100984.88
2023-02-14T03:30:24.256Z,100987.50
2023-02-14T03:33:01.143Z,100982.28
2023-02-14T03:35:34.438Z,100979.69
2023-02-14T03:38:08.835Z,100975.28
2023-02-14T03:40:43.985Z,100980.53
2023-02-14T03:43:16.477Z,100979.69
2023-02-14T03:45:51.694Z,100976.19
2023-02-14T03:48:24.257Z,100970.94
2023-02-14T03:50:55.034Z,100971.81
2023-02-14T03:53:27.200Z,100984.91
2023-02-14T03:56:06.356Z,100984.00
2023-02-14T03:58:39.701Z,100991.00
2023-02-14T04:01:15.221Z,100991.84
2023-02-14T04:03:45.523Z,100987.50
2023-02-14T04:06:13.749Z,100985.75
2023-02-14T04:08:41.906Z,100981.41
2023-02-14T04:11:11.732Z,100977.91
2023-02-14T04:13:41.795Z,100981.38
2023-02-14T04:16:10.342Z,100972.66
2023-02-14T04:18:55.730Z,100976.13
2023-02-14T04:21:23.856Z,100975.25
2023-02-14T04:23:52.199Z,100983.97
2023-02-14T04:26:21.887Z,100973.53
2023-02-14T04:28:49.986Z,100978.75
2023-02-14T04:31:18.205Z,100983.97
2023-02-14T04:33:48.346Z,100993.53
2023-02-14T04:36:16.710Z,100983.09
2023-02-14T04:38:46.600Z,100985.75
2023-02-14T04:41:15.139Z,100974.41
2023-02-14T04:43:45.311Z,100984.88
2023-02-14T04:46:13.575Z,100987.50
2023-02-14T04:48:41.730Z,100982.25
2023-02-14T04:51:09.869Z,100987.47
2023-02-14T04:53:40.517Z,100985.75
2023-02-14T04:56:09.422Z,100979.63
2023-02-14T04:58:37.812Z,100975.28
2023-02-14T05:01:08.785Z,100972.66
2023-02-14T05:03:37.214Z,100981.34
2023-02-14T05:06:05.584Z,100983.91
2023-02-14T05:08:34.313Z,100973.41
2023-02-14T05:11:02.980Z,100976.91
2023-02-14T05:13:32.154Z,100974.34
2023-02-14T05:16:00.476Z,100976.13
2023-02-14T05:18:32.451Z,100971.75
2023-02-14T05:21:01.001Z,100971.78
2023-02-14T05:23:29.370Z,100974.41
2023-02-14T05:25:57.369Z,100983.09
2023-02-14T05:28:25.762Z,100980.50
2023-02-14T05:30:54.406Z,100982.22
2023-02-14T05:33:22.615Z,100979.59
2023-02-14T05:35:54.864Z,100973.50
2023-02-14T05:38:23.160Z,100981.31
2023-02-14T05:40:51.291Z,100982.25
2023-02-14T05:43:19.303Z,100979.59
2023-02-14T05:45:47.788Z,100980.44
2023-02-14T05:48:16.336Z,100979.63
2023-02-14T05:50:45.470Z,100974.34
2023-02-14T05:53:16.048Z,100979.56
2023-02-14T05:55:44.366Z,100983.94
2023-02-14T05:58:13.568Z,100989.16
2023-02-14T06:00:42.331Z,100986.50
2023-02-14T06:03:10.786Z,100993.41
2023-02-14T06:05:39.325Z,100989.94
2023-02-14T06:08:07.694Z,100995.16
2023-02-14T06:10:37.460Z,100997.75
2023-02-14T06:13:08.991Z,101004.75
2023-02-14T06:15:37.710Z,101000.41
2023-02-14T06:18:06.679Z,101000.50
2023-02-14T06:20:35.094Z,101007.47
2023-02-14T06:23:03.633Z,101009.25
2023-02-14T06:25:33.212Z,101016.22
2023-02-14T06:28:03.363Z,101019.72
2023-02-14T06:30:31.625Z,101027.59
2023-02-14T06:33:00.017Z,101019.72
2023-02-14T06:35:28.215Z,101022.34
2023-02-14T06:37:56.564Z,101018.78
2023-02-14T06:40:25.369Z,101015.31
2023-02-14T06:42:53.407Z,101014.47
2023-02-14T06:45:24.390Z,101027.53
2023-02-14T06:47:52.601Z,101024.97
2023-02-14T06:50:21.052Z,101030.19
2023-02-14T06:52:49.134Z,101020.63
2023-02-14T06:55:17.621Z,101040.66
2023-02-14T06:57:46.403Z,101038.03
2023-02-14T07:00:16.968Z,101038.91
2023-02-14T07:02:47.206Z,101031.94
2023-02-14T07:05:19.193Z,101027.56
2023-02-14T07:07:47.654Z,101030.19
2023-02-14T07:10:16.712Z,101033.69
2023-02-14T07:12:46.585Z,101030.19
2023-02-14T07:15:15.324Z,101031.03
2023-02-14T07:17:44.413Z,101027.53
2023-02-14T07:20:15.193Z,101024.94
2023-02-14T07:22:43.875Z,101030.19
2023-02-14T07:25:12.466Z,101029.25
2023-02-14T07:27:41.487Z,101031.84
2023-02-14T07:30:11.858Z,101030.06
2023-02-14T07:32:43.163Z,101040.53
2023-02-14T07:35:15.369Z,101037.06
2023-02-14T07:37:44.083Z,101037.06
2023-02-14T07:40:15.285Z,101041.38
2023-02-14T07:42:44.135Z,101038.00
2023-02-14T07:45:22.052Z,101035.41
2023-02-14T07:47:50.966Z,101031.91
2023-02-14T07:50:21.519Z,101031.88
2023-02-14T07:52:50.767Z,101033.63
2023-02-14T07:55:22.866Z,101033.66
2023-02-14T07:57:53.420Z,101036.25
2023-02-14T08:00:23.020Z,101034.50
2023-02-14T08:02:51.093Z,101030.19
2023-02-14T08:05:20.687Z,101038.00
2023-02-14T08:07:48.882Z,101044.09
2023-02-14T08:10:17.235Z,101041.50
2023-02-14T08:13:00.796Z,101040.63
2023-02-14T08:15:48.408Z,101047.59
2023-02-14T08:18:17.891Z,101032.84
2023-02-14T08:20:53.102Z,101048.50
2023-02-14T08:23:22.514Z,101041.53
2023-02-14T08:25:52.208Z,101046.72
2023-02-14T08:28:23.384Z,101045.88
2023-02-14T08:30:52.535Z,101045.88
2023-02-14T08:33:20.779Z,101050.25
2023-02-14T08:35:52.316Z,101045.88
2023-02-14T08:38:21.020Z,101047.63
2023-02-14T08:40:49.598Z,101059.81
2023-02-14T08:43:17.868Z,101046.75
2023-02-14T08:45:46.440Z,101046.75
2023-02-14T08:48:16.026Z,101045.03
2023-02-14T08:50:44.179Z,101043.28
2023-02-14T08:53:15.213Z,101043.28
2023-02-14T08:55:43.744Z,101038.06
2023-02-14T08:58:12.275Z,101032.78
2023-02-14T09:00:40.805Z,101035.44
2023-02-14T09:03:10.788Z,101041.53
2023-02-14T09:05:39.255Z,101039.78
2023-02-14T09:08:08.054Z,101042.41
2023-02-14T09:10:38.035Z,101042.38
2023-02-14T09:13:07.622Z,101039.78
2023-02-14T09:15:36.216Z,101046.78
2023-02-14T09:18:05.204Z,101041.50
2023-02-14T09:20:33.866Z,101039.78
2023-02-14T09:23:02.293Z,101041.53
2023-02-14T09:25:30.830Z,101041.53
2023-02-14T09:28:00.596Z,101048.50
2023-02-14T09:30:29.229Z,101046.78
2023-02-14T09:32:57.579Z,101039.78
2023-02-14T09:35:25.753Z,101043.25
2023-02-14T09:37:53.941Z,101043.25
2023-02-14T09:40:22.330Z,101040.66
2023-02-14T09:43:00.121Z,101035.44
2023-02-14T09:45:33.687Z,101039.78
2023-02-14T09:48:10.217Z,101044.16
2023-02-14T09:50:43.469Z,101048.50
2023-02-14T09:53:21.644Z,101038.03
2023-02-14T09:55:57.377Z,101040.66
2023-02-14T09:58:33.624Z,101038.91
2023-02-14T10:01:12.104Z,101034.56
2023-02-14T10:04:03.290Z,101037.19
2023-02-14T10:06:45.019Z,101042.41
2023-02-14T10:09:24.665Z,101039.78
2023-02-14T10:11:53.366Z,101040.66
2023-02-14T10:14:25.883Z,101040.66
2023-02-14T10:17:01.092Z,101031.94
2023-02-14T10:19:36.477Z,101042.41
2023-02-14T10:22:09.486Z,101040.66
2023-02-14T10:24:41.922Z,101043.28
2023-02-14T10:27:19.672Z,101040.66
2023-02-14T10:29:47.845Z,101039.81
2023-02-14T10:32:22.363Z,101034.53
2023-02-14T10:34:52.162Z,101037.19
2023-02-14T10:37:34.246Z,101036.28
2023-02-14T10:40:20.199Z,101034.56
2023-02-14T10:42:54.711Z,101033.66
2023-02-14T10:45:30.465Z,101034.53
2023-02-14T10:48:07.110Z,101031.03
2023-02-14T10:50:41.582Z,101031.06
2023-02-14T10:53:19.311Z,101038.91
2023-02-14T10:55:55.056Z,101032.78
2023-02-14T10:58:25.850Z,101023.19
2023-02-14T11:01:00.339Z,101021.41
2023-02-14T11:03:31.860Z,101020.59
2023-02-14T11:06:00.777Z,101014.53
2023-02-14T11:08:33.043Z,101013.63
2023-02-14T11:11:09.528Z,101023.22
2023-02-14T11:13:40.175Z,101011.00
2023-02-14T11:16:11.830Z,101006.69
2023-02-14T11:18:43.121Z,101019.75
2023-02-14T11:21:12.792Z,101008.41
2023-02-14T11:23:43.001Z,101010.13
2023-02-14T11:26:22.107Z,100996.16
2023-02-14T11:28:54.293Z,100998.75
2023-02-14T11:31:34.152Z,100992.66
2023-02-14T11:34:07.025Z,100990.88
2023-02-14T11:36:45.288Z,100983.91
2023-02-14T11:39:27.013Z,100983.81
2023-02-14T11:41:57.717Z,100974.22
2023-02-14T11:44:28.068Z,100978.63
2023-02-14T11:47:17.082Z,100968.16
2023-02-14T11:50:02.713Z,100958.56
2023-02-14T11:52:41.051Z,100954.25
2023-02-14T11:55:26.419Z,100954.25
2023-02-14T11:57:57.265Z,100952.59
2023-02-14T12:00:31.322Z,100953.41
2023-02-14T12:03:01.475Z,100948.19
2023-02-14T12:05:35.458Z,100947.28
2023-02-14T12:08:06.475Z,100944.66
2023-02-14T12:10:37.283Z,100939.47
2023-02-14T12:13:26.110Z,100937.78
2023-02-14T12:15:57.650Z,100944.75
2023-02-14T12:18:53.110Z,100937.78
2023-02-14T12:21:48.437Z,100937.72
2023-02-14T12:24:28.248Z,100935.06
2023-02-14T12:27:06.907Z,100934.09
2023-02-14T12:29:40.724Z,100922.75
2023-02-14T12:32:17.676Z,100922.56
2023-02-14T12:34:45.837Z,100910.38
2023-02-14T12:37:21.959Z,100907.91
2023-02-14T12:40:07.087Z,100915.72
2023-02-14T12:42:49.734Z,100900.78
2023-02-14T12:45:26.426Z,100899.78
2023-02-14T12:48:06.297Z,100893.59
2023-02-14T12:50:45.652Z,100893.72
2023-02-14T12:53:48.948Z,100887.47
2023-02-14T12:56:35.259Z,100873.53
2023-02-14T12:59:17.468Z,100872.53
2023-02-14T13:02:28.315Z,100869.22
2023-02-14T13:05:01.158Z,100866.59
2023-02-14T13:07:53.015Z,100853.34
2023-02-14T13:10:30.200Z,100857.75
2023-02-14T13:16:03.135Z,100848.91
2023-02-14T13:18:42.911Z,100843.69
2023-02-14T13:21:13.617Z,100840.97
2023-02-14T13:23:45.195Z,100841.66
2023-02-14T13:26:17.556Z,100828.56
2023-02-14T13:28:52.337Z,100822.34
2023-02-14T13:31:23.852Z,100825.06
2023-02-14T13:33:55.617Z,100828.44
2023-02-14T13:36:25.069Z,100828.56
2023-02-14T13:41:25.063Z,100816.16
2023-02-14T13:43:57.876Z,100817.94
2023-02-14T13:46:51.230Z,100816.22
2023-02-14T13:49:29.611Z,100805.28
2023-02-14T13:51:59.866Z,100804.16
2023-02-14T13:54:37.458Z,100804.78
2023-02-14T13:57:31.850Z,100797.66
2023-02-14T14:00:47.622Z,100804.78
2023-02-14T14:03:54.545Z,100794.25
2023-02-14T14:06:23.904Z,100799.34
2023-02-14T14:08:56.323Z,100794.69
2023-02-14T14:11:58.598Z,100793.69
2023-02-14T14:14:40.077Z,100788.59
2023-02-14T14:17:26.227Z,100782.56
2023-02-14T14:19:58.079Z,100787.72
2023-02-14T14:22:27.090Z,100791.75
2023-02-14T14:25:01.761Z,100777.69
2023-02-14T14:27:35.169Z,100782.00
2023-02-14T14:30:05.714Z,100786.16
2023-02-14T14:32:37.486Z,100785.75
2023-02-14T14:35:20.605Z,100775.28
2023-02-14T14:37:52.519Z,100769.59
2023-02-14T14:40:26.417Z,100762.78
2023-02-14T14:42:55.941Z,100763.88
2023-02-14T14:45:27.525Z,100767.28
2023-02-14T14:48:00.453Z,100757.59
2023-02-14T14:50:33.201Z,100758.00
2023-02-14T14:53:04.072Z,100747.91
2023-02-14T14:55:35.549Z,100744.25
2023-02-14T14:58:05.221Z,100743.97
2023-02-14T15:00:35.842Z,100741.59
2023-02-14T15:03:07.971Z,100722.91
2023-02-14T15:05:40.675Z,100724.84
2023-02-14T15:08:23.688Z,100713.88
2023-02-14T15:10:56.290Z,100715.25
2023-02-14T15:13:49.369Z,100706.94
2023-02-14T15:16:24.884Z,100704.03
2023-02-14T15:18:56.464Z,100707.63
2023-02-14T15:21:26.959Z,100707.06
2023-02-14T15:23:55.828Z,100704.22
2023-02-14T15:26:28.800Z,100715.13
2023-02-14T15:29:00.195Z,100701.59
2023-02-14T15:31:37.354Z,100716.41
2023-02-14T15:34:06.733Z,100710.69
2023-02-14T15:36:37.527Z,100712.84
2023-02-14T15:39:10.152Z,100715.00
2023-02-14T15:41:43.632Z,100712.06
2023-02-14T15:44:20.641Z,100703.81
2023-02-14T15:46:49.885Z,100714.53
2023-02-14T15:49:22.888Z,100710.75
2023-02-14T15:51:53.426Z,100709.94
2023-02-14T15:54:27.712Z,100715.97
2023-02-14T15:56:56.892Z,100718.69
2023-02-14T15:59:29.848Z,100721.41
2023-02-14T16:02:01.472Z,100718.78
2023-02-14T16:04:32.952Z,100723.31
2023-02-14T16:07:25.597Z,100726.94
2023-02-14T16:10:15.912Z,100735.03
2023-02-14T16:12:44.665Z,100727.25
2023-02-14T16:15:20.637Z,100730.66
2023-02-14T16:17:49.569Z,100731.53
2023-02-14T16:20:29.396Z,100728.94
2023-02-14T16:23:20.845Z,100723.88
2023-02-14T16:25:49.959Z,100724.69
2023-02-14T16:28:18.619Z,100728.16
2023-02-14T16:30:48.544Z,100725.72
2023-02-14T16:33:21.709Z,100728.31
2023-02-14T16:35:51.526Z,100720.50
2023-02-14T16:38:22.925Z,100723.16
2023-02-14T16:40:54.576Z,100722.25
2023-02-14T16:43:23.807Z,100729.34
2023-02-14T16:45:52.311Z,100732.13
2023-02-14T16:48:20.556Z,100725.06
2023-02-14T16:50:49.018Z,100727.72
2023-02-14T16:53:36.650Z,100738.16
2023-02-14T16:56:04.842Z,100731.28
2023-02-14T16:58:36.092Z,100733.91
2023-02-14T17:01:05.566Z,100743.53
2023-02-14T17:03:35.678Z,100747.00
2023-02-14T17:06:06.453Z,100742.63
2023-02-14T17:08:39.654Z,100743.44
2023-02-14T17:11:08.584Z,100743.50
2023-02-14T17:13:41.141Z,100740.69
2023-02-14T17:16:13.129Z,100741.47
2023-02-14T17:18:47.924Z,100738.97
2023-02-14T17:21:18.268Z,100736.38
2023-02-14T17:23:48.579Z,100737.41
2023-02-14T17:26:18.589Z,100735.63
2023-02-14T17:28:47.848Z,100738.34
2023-02-14T17:31:17.404Z,100736.56
2023-02-14T17:33:46.104Z,100736.63
2023-02-14T17:36:15.912Z,100740.22
2023-02-14T17:38:45.389Z,100743.75
2023-02-14T17:41:22.025Z,100748.91
2023-02-14T17:43:52.054Z,100750.72
2023-02-14T17:46:20.884Z,100745.41
2023-02-14T17:48:50.444Z,100742.84
2023-02-14T17:51:22.685Z,100734.97
2023-02-14T17:53:51.665Z,100729.66
2023-02-14T17:56:23.833Z,100734.84
2023-02-14T17:58:55.426Z,100734.03
2023-02-14T18:01:26.103Z,100726.25
2023-02-14T18:03:55.485Z,100739.34
2023-02-14T18:06:24.078Z,100743.72
2023-02-14T18:08:53.809Z,100741.97
2023-02-14T18:11:26.412Z,100738.47
2023-02-14T18:13:55.378Z,100740.19
2023-02-14T18:16:24.958Z,100748.88
2023-02-14T18:18:55.059Z,100747.06
2023-02-14T18:21:24.761Z,100748.06
2023-02-14T18:23:52.923Z,100744.56
2023-02-14T18:26:21.471Z,100740.22
2023-02-14T18:28:51.377Z,100740.16
2023-02-14T18:31:20.180Z,100736.78
2023-02-14T18:33:49.580Z,100737.63
2023-02-14T18:36:21.664Z,100735.94
2023-02-14T18:38:50.960Z,100731.41
2023-02-14T18:41:21.086Z,100734.13
2023-02-14T18:43:51.226Z,100728.97
2023-02-14T18:46:21.468Z,100721.13
2023-02-14T18:48:50.157Z,100723.81
2023-02-14T18:51:20.656Z,100723.06
2023-02-14T18:53:52.364Z,100716.16
2023-02-14T18:56:22.398Z,100707.47
2023-02-14T18:58:57.607Z,100723.00
2023-02-14T19:01:29.328Z,100710.84
2023-02-14T19:03:59.762Z,100712.59
2023-02-14T19:06:29.671Z,100723.97
2023-02-14T19:08:59.240Z,100723.28
2023-02-14T19:11:31.651Z,100709.28
2023-02-14T19:14:03.488Z,100719.75
2023-02-14T19:16:34.042Z,100706.66
2023-02-14T19:19:03.272Z,100703.41
2023-02-14T19:21:33.764Z,100709.38
2023-02-14T19:24:03.807Z,100702.38
2023-02-14T19:26:37.465Z,100701.66
2023-02-14T19:29:11.721Z,100703.38
2023-02-14T19:31:43.038Z,100702.53
2023-02-14T19:34:17.640Z,100705.06
2023-02-14T19:36:46.407Z,100706.81
2023-02-14T19:39:15.289Z,100704.28
2023-02-14T19:41:43.886Z,100702.50
2023-02-14T19:44:15.724Z,100703.44
2023-02-14T19:46:46.590Z,100702.63
2023-02-14T19:49:16.646Z,100701.66
2023-02-14T19:51:46.127Z,100706.94
2023-02-14T19:54:16.054Z,100706.00
2023-02-14T19:56:46.621Z,100703.44
2023-02-14T19:59:20.378Z,100698.25
2023-02-14T20:01:51.607Z,100686.09
2023-02-14T20:04:23.977Z,100686.94
2023-02-14T20:06:53.270Z,100686.81
2023-02-14T20:09:23.174Z,100685.97
2023-02-14T20:11:54.509Z,100679.06
2023-02-14T20:14:26.782Z,100688.66
2023-02-14T20:16:56.913Z,100681.66
2023-02-14T20:19:29.506Z,100680.78
2023-02-14T20:21:57.691Z,100673.00
2023-02-14T20:24:28.647Z,100675.56
2023-02-14T20:26:57.840Z,100681.63
2023-02-14T20:29:28.097Z,100682.53
2023-02-14T20:32:00.236Z,100681.66
2023-02-14T20:34:30.312Z,100680.81
2023-02-14T20:36:59.357Z,100678.19
2023-02-14T20:39:31.847Z,100677.31
2023-02-14T20:42:01.145Z,100673.81
2023-02-14T20:44:31.214Z,100673.91
2023-02-14T20:47:00.264Z,100666.91
2023-02-14T20:49:30.845Z,100665.06
2023-02-14T20:51:59.785Z,100662.50
2023-02-14T20:54:30.430Z,100664.19
2023-02-14T20:57:02.140Z,100665.03
2023-02-14T20:59:37.842Z,100660.75
2023-02-14T21:02:07.685Z,100654.66
2023-02-14T21:04:35.995Z,100656.38
2023-02-14T21:07:08.911Z,100655.50
2023-02-14T21:09:37.968Z,100651.03
2023-02-14T21:12:07.219Z,100652.78
2023-02-14T21:14:36.899Z,100655.47
2023-02-14T21:17:05.872Z,100650.25
2023-02-14T21:19:35.365Z,100655.41
2023-02-14T21:22:03.784Z,100647.56
2023-02-14T21:24:32.530Z,100654.53
2023-02-14T21:27:02.020Z,100648.50
2023-02-14T21:29:30.833Z,100653.72
2023-02-14T21:32:03.434Z,100649.28
2023-02-14T21:34:32.287Z,100644.09
2023-02-14T21:37:00.729Z,100642.34
2023-02-14T21:39:31.126Z,100639.66
2023-02-14T21:41:59.888Z,100632.66
2023-02-14T21:44:45.290Z,100635.19
2023-02-14T21:47:15.431Z,100632.78
2023-02-14T21:50:01.023Z,100632.72
2023-02-14T21:52:30.442Z,100626.75
2023-02-14T21:54:58.939Z,100627.56
2023-02-14T21:57:30.852Z,100630.06
2023-02-14T21:59:59.033Z,100630.09
2023-02-14T22:02:32.744Z,100623.25
2023-02-14T22:05:01.164Z,100624.13
2023-02-14T22:07:30.357Z,100620.69
2023-02-14T22:10:01.772Z,100628.50
2023-02-14T22:12:30.759Z,100624.25
2023-02-14T22:15:02.183Z,100622.63
2023-02-14T22:17:34.213Z,100627.00
2023-02-14T22:20:02.481Z,100623.53
2023-02-14T22:22:30.799Z,100632.28
2023-02-14T22:24:59.229Z,100627.97
2023-02-14T22:27:27.479Z,100630.66
2023-02-14T22:29:55.732Z,100633.28
2023-02-14T22:32:26.294Z,100636.69
2023-02-14T22:34:56.538Z,100628.88
2023-02-14T22:37:24.868Z,100628.88
2023-02-14T22:39:52.935Z,100626.22
2023-02-14T22:42:21.292Z,100631.44
2023-02-14T22:44:50.146Z,100621.84
2023-02-14T22:47:18.458Z,100626.22
2023-02-14T22:49:46.957Z,100620.91
2023-02-14T22:52:16.716Z,100616.56
2023-02-14T22:54:45.217Z,100613.13
2023-02-14T22:57:14.101Z,100617.38
2023-02-14T22:59:42.343Z,100614.81
2023-02-14T23:02:11.372Z,100623.59
2023-02-14T23:04:39.691Z,100621.88
2023-02-14T23:07:07.848Z,100625.41
2023-02-14T23:09:37.580Z,100626.19
2023-02-14T23:12:27.729Z,100621.84
2023-02-14T23:15:12.688Z,100627.09
2023-02-14T23:17:58.853Z,100637.50
2023-02-14T23:20:45.534Z,100632.34
2023-02-14T23:23:13.886Z,100626.19
2023-02-14T23:25:44.674Z,100627.09
2023-02-14T23:28:12.985Z,100633.19
2023-02-14T23:30:41.220Z,100624.50
2023-02-14T23:33:09.736Z,100627.06
2023-02-14T23:35:38.656Z,100631.47
2023-02-14T23:38:07.237Z,100624.47
2023-02-14T23:40:56.008Z,100632.34
2023-02-14T23:43:25.783Z,100631.47
2023-02-14T23:45:54.204Z,100631.44
2023-02-14T23:48:22.514Z,100623.56
2023-02-14T23:50:50.945Z,100626.22
2023-02-14T23:53:19.395Z,100621.78
2023-02-14T23:55:48.008Z,100617.50
2023-02-14T23:58:16.193Z,100619.19
